sensor_id;sensor_type;location;lat;lon;timestamp;pressure;altitude;pressure_sealevel;temperature;humidity
12951;BME280;6540;50.858;7.232;2023-06-10T00:01:39;51576.16;;;-142.34;27.39
12951;BME280;6540;50.858;7.232;2023-06-10T00:04:05;51584.22;;;-142.34;27.27
12951;BME280;6540;50.858;7.232;2023-06-10T00:06:31;51608.44;;;-142.34;28.45
12951;BME280;6540;50.858;7.232;2023-06-10T00:09:04;51568.09;;;-142.34;27.37
12951;BME280;6540;50.858;7.232;2023-06-10T00:11:33;51616.50;;;-142.34;27.83
12951;BME280;6540;50.858;7.232;2023-06-10T00:13:59;51568.09;;;-142.34;26.99
12951;BME280;6540;50.858;7.232;2023-06-10T00:16:24;51570.13;;;-142.34;27.58
12951;BME280;6540;50.858;7.232;2023-06-10T00:18:50;51616.50;;;-142.34;27.71
12951;BME280;6540;50.858;7.232;2023-06-10T00:21:16;51660.88;;;-142.34;28.12
12951;BME280;6540;50.858;7.232;2023-06-10T00:23:42;51588.28;;;-142.34;27.28
12951;BME280;6540;50.858;7.232;2023-06-10T00:26:07;51608.44;;;-142.34;27.61
12951;BME280;6540;50.858;7.232;2023-06-10T00:28:33;51582.22;;;-142.34;27.03
12951;BME280;6540;50.858;7.232;2023-06-10T00:30:59;51566.09;;;-142.34;27.33
12951;BME280;6540;50.858;7.232;2023-06-10T00:33:24;51543.88;;;-142.34;26.82
12951;BME280;6540;50.858;7.232;2023-06-10T00:35:49;51570.13;;;-142.34;27.00
12951;BME280;6540;50.858;7.232;2023-06-10T00:38:15;51588.28;;;-142.34;28.20
12951;BME280;6540;50.858;7.232;2023-06-10T00:40:40;51586.25;;;-142.34;26.90
12951;BME280;6540;50.858;7.232;2023-06-10T00:43:06;51594.31;;;-142.34;27.43
12951;BME280;6540;50.858;7.232;2023-06-10T00:45:32;51572.13;;;-142.34;27.17
12951;BME280;6540;50.858;7.232;2023-06-10T00:47:59;51620.53;;;-142.34;27.43
12951;BME280;6540;50.858;7.232;2023-06-10T00:50:25;51558.00;;;-142.34;27.00
12951;BME280;6540;50.858;7.232;2023-06-10T00:52:50;51616.50;;;-142.34;28.00
12951;BME280;6540;50.858;7.232;2023-06-10T00:55:16;51574.16;;;-142.34;27.28
12951;BME280;6540;50.858;7.232;2023-06-10T00:57:44;51580.19;;;-142.34;27.63
12951;BME280;6540;50.858;7.232;2023-06-10T01:00:11;51604.41;;;-142.34;27.09
12951;BME280;6540;50.858;7.232;2023-06-10T01:02:37;51590.28;;;-142.34;27.78
12951;BME280;6540;50.858;7.232;2023-06-10T01:05:03;51604.41;;;-142.34;27.85
12951;BME280;6540;50.858;7.232;2023-06-10T01:08:07;51570.13;;;-142.34;27.15
12951;BME280;6540;50.858;7.232;2023-06-10T01:10:45;51610.47;;;-142.34;27.97
12951;BME280;6540;50.858;7.232;2023-06-10T01:13:13;51580.19;;;-142.34;28.49
12951;BME280;6540;50.858;7.232;2023-06-10T01:15:39;51584.22;;;-142.34;27.51
12951;BME280;6540;50.858;7.232;2023-06-10T01:18:08;51588.28;;;-142.34;28.06
12951;BME280;6540;50.858;7.232;2023-06-10T01:20:36;51648.78;;;-142.34;28.77
12951;BME280;6540;50.858;7.232;2023-06-10T01:23:06;51630.63;;;-142.34;28.14
12951;BME280;6540;50.858;7.232;2023-06-10T01:25:32;51654.84;;;-142.34;28.55
12951;BME280;6540;50.858;7.232;2023-06-10T01:28:22;51628.63;;;-142.34;28.04
12951;BME280;6540;50.858;7.232;2023-06-10T01:31:09;51624.56;;;-142.34;27.61
12951;BME280;6540;50.858;7.232;2023-06-10T01:33:43;51630.63;;;-142.34;28.52
12951;BME280;6540;50.858;7.232;2023-06-10T01:36:11;51638.69;;;-142.34;28.19
12951;BME280;6540;50.858;7.232;2023-06-10T01:38:40;51612.47;;;-142.34;27.60
12951;BME280;6540;50.858;7.232;2023-06-10T01:41:08;51600.38;;;-142.34;27.55
12951;BME280;6540;50.858;7.232;2023-06-10T01:43:35;51616.50;;;-142.34;27.83
12951;BME280;6540;50.858;7.232;2023-06-10T01:46:02;51608.44;;;-142.34;28.19
12951;BME280;6540;50.858;7.232;2023-06-10T01:48:27;51626.59;;;-142.34;28.02
12951;BME280;6540;50.858;7.232;2023-06-10T01:50:53;51630.63;;;-142.34;27.87
12951;BME280;6540;50.858;7.232;2023-06-10T01:53:21;51636.69;;;-142.34;27.94
12951;BME280;6540;50.858;7.232;2023-06-10T01:55:47;51620.53;;;-142.34;27.91
12951;BME280;6540;50.858;7.232;2023-06-10T01:58:12;51610.47;;;-142.34;27.70
12951;BME280;6540;50.858;7.232;2023-06-10T02:00:37;51606.44;;;-142.34;27.58
12951;BME280;6540;50.858;7.232;2023-06-10T02:03:03;51634.66;;;-142.34;28.05
12951;BME280;6540;50.858;7.232;2023-06-10T02:05:28;51618.53;;;-142.34;28.17
12951;BME280;6540;50.858;7.232;2023-06-10T02:07:53;51610.47;;;-142.34;27.63
12951;BME280;6540;50.858;7.232;2023-06-10T02:10:19;51606.44;;;-142.34;27.93
12951;BME280;6540;50.858;7.232;2023-06-10T02:12:44;51618.53;;;-142.34;27.54
12951;BME280;6540;50.858;7.232;2023-06-10T02:15:09;51588.28;;;-142.34;26.79
12951;BME280;6540;50.858;7.232;2023-06-10T02:17:35;51547.94;;;-142.34;26.41
12951;BME280;6540;50.858;7.232;2023-06-10T02:20:00;51543.88;;;-142.34;26.36
12951;BME280;6540;50.858;7.232;2023-06-10T02:22:29;51558.00;;;-142.34;26.34
12951;BME280;6540;50.858;7.232;2023-06-10T02:24:54;51541.88;;;-142.34;26.44
12951;BME280;6540;50.858;7.232;2023-06-10T02:27:20;51574.16;;;-142.34;26.49
12951;BME280;6540;50.858;7.232;2023-06-10T02:29:45;51576.16;;;-142.34;27.34
12951;BME280;6540;50.858;7.232;2023-06-10T02:32:11;51648.78;;;-142.34;27.87
12951;BME280;6540;50.858;7.232;2023-06-10T02:34:36;51594.31;;;-142.34;27.55
12951;BME280;6540;50.858;7.232;2023-06-10T02:37:02;51646.75;;;-142.34;28.42
12951;BME280;6540;50.858;7.232;2023-06-10T02:39:28;51610.47;;;-142.34;28.14
12951;BME280;6540;50.858;7.232;2023-06-10T02:41:53;51644.75;;;-142.34;28.26
12951;BME280;6540;50.858;7.232;2023-06-10T02:44:19;51580.19;;;-142.34;26.80
12951;BME280;6540;50.858;7.232;2023-06-10T02:46:44;51560.03;;;-142.34;26.52
12951;BME280;6540;50.858;7.232;2023-06-10T02:49:11;51549.94;;;-142.34;26.19
12951;BME280;6540;50.858;7.232;2023-06-10T02:51:36;51600.38;;;-142.34;26.54
12951;BME280;6540;50.858;7.232;2023-06-10T02:54:02;51535.81;;;-142.34;26.44
12951;BME280;6540;50.858;7.232;2023-06-10T02:56:27;51580.19;;;-142.34;26.28
12951;BME280;6540;50.858;7.232;2023-06-10T02:58:53;51547.94;;;-142.34;26.27
12951;BME280;6540;50.858;7.232;2023-06-10T03:01:18;51558.00;;;-142.34;26.30
12951;BME280;6540;50.858;7.232;2023-06-10T03:03:46;51586.25;;;-142.34;26.29
12951;BME280;6540;50.858;7.232;2023-06-10T03:06:12;51562.03;;;-142.34;26.58
12951;BME280;6540;50.858;7.232;2023-06-10T03:08:39;51628.63;;;-142.34;28.39
12951;BME280;6540;50.858;7.232;2023-06-10T03:11:05;51572.13;;;-142.34;27.93
12951;BME280;6540;50.858;7.232;2023-06-10T03:13:31;51614.50;;;-142.34;26.80
12951;BME280;6540;50.858;7.232;2023-06-10T03:15:56;51551.97;;;-142.34;26.62
12951;BME280;6540;50.858;7.232;2023-06-10T03:18:26;51592.31;;;-142.34;26.90
12951;BME280;6540;50.858;7.232;2023-06-10T03:20:51;51580.19;;;-142.34;26.77
12951;BME280;6540;50.858;7.232;2023-06-10T03:23:17;51604.41;;;-142.34;27.49
12951;BME280;6540;50.858;7.232;2023-06-10T03:25:44;51600.38;;;-142.34;26.94
12951;BME280;6540;50.858;7.232;2023-06-10T03:28:09;51580.19;;;-142.34;26.68
12951;BME280;6540;50.858;7.232;2023-06-10T03:30:35;51600.38;;;-142.34;27.33
12951;BME280;6540;50.858;7.232;2023-06-10T03:33:00;51592.31;;;-142.34;28.04
12951;BME280;6540;50.858;7.232;2023-06-10T03:35:26;51624.56;;;-142.34;28.18
12951;BME280;6540;50.858;7.232;2023-06-10T03:37:52;51681.06;;;-142.34;29.36
12951;BME280;6540;50.858;7.232;2023-06-10T03:40:17;51662.91;;;-142.34;28.81
12951;BME280;6540;50.858;7.232;2023-06-10T03:42:43;51640.72;;;-142.34;27.95
12951;BME280;6540;50.858;7.232;2023-06-10T03:45:09;51608.44;;;-142.34;26.90
12951;BME280;6540;50.858;7.232;2023-06-10T03:47:35;51600.38;;;-142.34;27.44
12951;BME280;6540;50.858;7.232;2023-06-10T03:50:03;51598.34;;;-142.34;27.63
12951;BME280;6540;50.858;7.232;2023-06-10T03:52:29;51556.00;;;-142.34;26.40
12951;BME280;6540;50.858;7.232;2023-06-10T03:54:54;51588.28;;;-142.34;26.77
12951;BME280;6540;50.858;7.232;2023-06-10T03:57:20;51586.25;;;-142.34;26.41
12951;BME280;6540;50.858;7.232;2023-06-10T03:59:45;51527.75;;;-142.34;26.54
12951;BME280;6540;50.858;7.232;2023-06-10T04:02:10;51553.97;;;-142.34;26.56
12951;BME280;6540;50.858;7.232;2023-06-10T04:04:36;51582.22;;;-142.34;26.63
12951;BME280;6540;50.858;7.232;2023-06-10T04:07:03;51588.28;;;-142.34;27.02
12951;BME280;6540;50.858;7.232;2023-06-10T04:09:28;51543.88;;;-142.34;26.64
12951;BME280;6540;50.858;7.232;2023-06-10T04:11:54;51570.13;;;-142.34;27.05
12951;BME280;6540;50.858;7.232;2023-06-10T04:14:19;51553.97;;;-142.34;26.46
12951;BME280;6540;50.858;7.232;2023-06-10T04:16:44;51578.19;;;-142.34;26.54
12951;BME280;6540;50.858;7.232;2023-06-10T04:19:10;51543.88;;;-142.34;26.27
12951;BME280;6540;50.858;7.232;2023-06-10T04:21:35;51541.88;;;-142.34;26.42
12951;BME280;6540;50.858;7.232;2023-06-10T04:24:01;51560.03;;;-142.34;26.50
12951;BME280;6540;50.858;7.232;2023-06-10T04:26:27;51568.09;;;-142.34;27.54
12951;BME280;6540;50.858;7.232;2023-06-10T04:28:52;51604.41;;;-142.34;28.05
12951;BME280;6540;50.858;7.232;2023-06-10T04:31:18;51658.88;;;-142.34;29.14
12951;BME280;6540;50.858;7.232;2023-06-10T04:33:43;51604.41;;;-142.34;28.11
12951;BME280;6540;50.858;7.232;2023-06-10T04:36:09;51507.59;;;-142.34;26.49
12951;BME280;6540;50.858;7.232;2023-06-10T04:38:34;51434.97;;;-142.34;25.67
12951;BME280;6540;50.858;7.232;2023-06-10T04:41:00;51459.16;;;-142.34;26.39
12951;BME280;6540;50.858;7.232;2023-06-10T04:43:25;51400.69;;;-142.34;25.22
12951;BME280;6540;50.858;7.232;2023-06-10T04:45:50;51434.97;;;-142.34;25.54
12951;BME280;6540;50.858;7.232;2023-06-10T04:48:16;51406.72;;;-142.34;25.97
12951;BME280;6540;50.858;7.232;2023-06-10T04:50:41;51396.63;;;-142.34;25.34
12951;BME280;6540;50.858;7.232;2023-06-10T04:53:07;51358.31;;;-142.34;24.69
12951;BME280;6540;50.858;7.232;2023-06-10T04:55:32;51354.28;;;-142.34;24.68
12951;BME280;6540;50.858;7.232;2023-06-10T04:57:59;51334.13;;;-142.34;24.36
12951;BME280;6540;50.858;7.232;2023-06-10T05:00:24;51358.31;;;-142.34;24.78
12951;BME280;6540;50.858;7.232;2023-06-10T05:02:50;51346.22;;;-142.34;24.44
12951;BME280;6540;50.858;7.232;2023-06-10T05:05:17;51366.38;;;-142.34;25.08
12951;BME280;6540;50.858;7.232;2023-06-10T05:07:43;51394.63;;;-142.34;24.80
12951;BME280;6540;50.858;7.232;2023-06-10T05:10:09;51410.75;;;-142.34;24.90
12951;BME280;6540;50.858;7.232;2023-06-10T05:12:34;51384.53;;;-142.34;24.96
12951;BME280;6540;50.858;7.232;2023-06-10T05:15:00;51350.25;;;-142.34;24.58
12951;BME280;6540;50.858;7.232;2023-06-10T05:17:25;51386.56;;;-142.34;24.93
12951;BME280;6540;50.858;7.232;2023-06-10T05:19:51;51408.75;;;-142.34;24.91
12951;BME280;6540;50.858;7.232;2023-06-10T05:22:16;51368.41;;;-142.34;24.67
12951;BME280;6540;50.858;7.232;2023-06-10T05:24:43;51360.34;;;-142.34;24.82
12951;BME280;6540;50.858;7.232;2023-06-10T05:27:10;51322.00;;;-142.34;24.86
12951;BME280;6540;50.858;7.232;2023-06-10T05:29:36;51364.38;;;-142.34;24.58
12951;BME280;6540;50.858;7.232;2023-06-10T05:32:01;51473.28;;;-142.34;25.97
12951;BME280;6540;50.858;7.232;2023-06-10T05:34:31;51453.13;;;-142.34;25.94
12951;BME280;6540;50.858;7.232;2023-06-10T05:36:57;51418.84;;;-142.34;25.14
12951;BME280;6540;50.858;7.232;2023-06-10T05:39:22;51364.38;;;-142.34;24.52
12951;BME280;6540;50.858;7.232;2023-06-10T05:41:47;51364.38;;;-142.34;24.73
12951;BME280;6540;50.858;7.232;2023-06-10T05:44:13;51356.31;;;-142.34;24.85
12951;BME280;6540;50.858;7.232;2023-06-10T05:46:38;51366.38;;;-142.34;24.90
12951;BME280;6540;50.858;7.232;2023-06-10T05:49:03;51338.16;;;-142.34;24.58
12951;BME280;6540;50.858;7.232;2023-06-10T05:51:29;51346.22;;;-142.34;24.94
12951;BME280;6540;50.858;7.232;2023-06-10T05:53:54;51360.34;;;-142.34;24.50
12951;BME280;6540;50.858;7.232;2023-06-10T05:56:20;51342.19;;;-142.34;23.79
12951;BME280;6540;50.858;7.232;2023-06-10T05:58:48;51358.31;;;-142.34;23.72
12951;BME280;6540;50.858;7.232;2023-06-10T06:01:14;51350.25;;;-142.34;23.84
12951;BME280;6540;50.858;7.232;2023-06-10T06:03:40;51350.25;;;-142.34;23.86
12951;BME280;6540;50.858;7.232;2023-06-10T06:06:05;51358.31;;;-142.34;24.17
12951;BME280;6540;50.858;7.232;2023-06-10T06:08:31;51380.50;;;-142.34;23.97
12951;BME280;6540;50.858;7.232;2023-06-10T06:10:56;51354.28;;;-142.34;24.21
12951;BME280;6540;50.858;7.232;2023-06-10T06:13:22;51330.06;;;-142.34;24.26
12951;BME280;6540;50.858;7.232;2023-06-10T06:15:47;51285.72;;;-142.34;24.20
12951;BME280;6540;50.858;7.232;2023-06-10T06:18:12;51358.31;;;-142.34;24.41
12951;BME280;6540;50.858;7.232;2023-06-10T06:20:38;51281.66;;;-142.34;24.07
12951;BME280;6540;50.858;7.232;2023-06-10T06:23:03;51285.72;;;-142.34;23.82
12951;BME280;6540;50.858;7.232;2023-06-10T06:25:29;51289.75;;;-142.34;23.79
12951;BME280;6540;50.858;7.232;2023-06-10T06:27:54;51261.50;;;-142.34;23.95
12951;BME280;6540;50.858;7.232;2023-06-10T06:30:19;51207.03;;;-142.34;23.63
12951;BME280;6540;50.858;7.232;2023-06-10T06:32:45;51215.09;;;-142.34;23.18
12951;BME280;6540;50.858;7.232;2023-06-10T06:35:10;51205.03;;;-142.34;23.37
12951;BME280;6540;50.858;7.232;2023-06-10T06:37:36;51180.81;;;-142.34;23.16
12951;BME280;6540;50.858;7.232;2023-06-10T06:40:01;51116.28;;;-142.34;22.66
12951;BME280;6540;50.858;7.232;2023-06-10T06:42:27;51112.25;;;-142.34;23.02
12951;BME280;6540;50.858;7.232;2023-06-10T06:44:53;51132.41;;;-142.34;22.96
12951;BME280;6540;50.858;7.232;2023-06-10T06:47:18;51051.75;;;-142.34;21.77
12951;BME280;6540;50.858;7.232;2023-06-10T06:49:46;51027.53;;;-142.34;22.38
12951;BME280;6540;50.858;7.232;2023-06-10T06:52:11;51063.84;;;-142.34;21.14
12951;BME280;6540;50.858;7.232;2023-06-10T06:54:37;51007.38;;;-142.34;21.42
12951;BME280;6540;50.858;7.232;2023-06-10T06:57:02;51088.03;;;-142.34;21.57
12951;BME280;6540;50.858;7.232;2023-06-10T06:59:28;51019.47;;;-142.34;22.15
12951;BME280;6540;50.858;7.232;2023-06-10T07:01:53;51063.84;;;-142.34;22.01
12951;BME280;6540;50.858;7.232;2023-06-10T07:04:21;51049.72;;;-142.34;21.93
12951;BME280;6540;50.858;7.232;2023-06-10T07:06:48;51055.78;;;-142.34;21.76
12951;BME280;6540;50.858;7.232;2023-06-10T07:09:13;51023.50;;;-142.34;21.40
12951;BME280;6540;50.858;7.232;2023-06-10T07:11:38;50991.22;;;-142.34;21.52
12951;BME280;6540;50.858;7.232;2023-06-10T07:14:04;51122.34;;;-142.34;21.85
12951;BME280;6540;50.858;7.232;2023-06-10T07:16:29;51017.44;;;-142.34;21.77
12951;BME280;6540;50.858;7.232;2023-06-10T07:18:55;51188.88;;;-142.34;22.53
12951;BME280;6540;50.858;7.232;2023-06-10T07:21:20;51176.78;;;-142.34;22.23
12951;BME280;6540;50.858;7.232;2023-06-10T07:23:48;51207.03;;;-142.34;22.15
12951;BME280;6540;50.858;7.232;2023-06-10T07:26:14;51176.78;;;-142.34;22.37
12951;BME280;6540;50.858;7.232;2023-06-10T07:28:40;51069.88;;;-142.34;21.80
12951;BME280;6540;50.858;7.232;2023-06-10T07:31:07;51077.97;;;-142.34;21.20
12951;BME280;6540;50.858;7.232;2023-06-10T07:33:32;51146.53;;;-142.34;21.84
12951;BME280;6540;50.858;7.232;2023-06-10T07:35:58;51229.22;;;-142.34;22.40
12951;BME280;6540;50.858;7.232;2023-06-10T07:38:25;51315.97;;;-142.34;22.67
12951;BME280;6540;50.858;7.232;2023-06-10T07:40:51;51261.50;;;-142.34;22.50
12951;BME280;6540;50.858;7.232;2023-06-10T07:43:16;51378.50;;;-142.34;22.76
12951;BME280;6540;50.858;7.232;2023-06-10T07:45:42;51261.50;;;-142.34;22.67
12951;BME280;6540;50.858;7.232;2023-06-10T07:48:07;51289.75;;;-142.34;22.42
12951;BME280;6540;50.858;7.232;2023-06-10T07:50:33;51386.56;;;-142.34;24.07
12951;BME280;6540;50.858;7.232;2023-06-10T07:52:58;51356.31;;;-142.34;23.01
12951;BME280;6540;50.858;7.232;2023-06-10T07:55:24;51402.69;;;-142.34;23.31
12951;BME280;6540;50.858;7.232;2023-06-10T07:57:51;51305.88;;;-142.34;22.86
12951;BME280;6540;50.858;7.232;2023-06-10T08:00:17;51267.56;;;-142.34;22.36
12951;BME280;6540;50.858;7.232;2023-06-10T08:02:42;51309.91;;;-142.34;22.89
12951;BME280;6540;50.858;7.232;2023-06-10T08:05:08;51291.75;;;-142.34;22.98
12951;BME280;6540;50.858;7.232;2023-06-10T08:07:33;51324.03;;;-142.34;23.38
12951;BME280;6540;50.858;7.232;2023-06-10T08:09:59;51358.31;;;-142.34;23.52
12951;BME280;6540;50.858;7.232;2023-06-10T08:12:24;51370.41;;;-142.34;23.38
12951;BME280;6540;50.858;7.232;2023-06-10T08:14:49;51229.22;;;-142.34;22.62
12951;BME280;6540;50.858;7.232;2023-06-10T08:17:15;51225.19;;;-142.34;22.63
12951;BME280;6540;50.858;7.232;2023-06-10T08:19:40;51277.63;;;-142.34;23.02
12951;BME280;6540;50.858;7.232;2023-06-10T08:22:05;51253.44;;;-142.34;22.50
12951;BME280;6540;50.858;7.232;2023-06-10T08:24:31;51281.66;;;-142.34;22.41
12951;BME280;6540;50.858;7.232;2023-06-10T08:26:56;51402.69;;;-142.34;23.66
12951;BME280;6540;50.858;7.232;2023-06-10T08:29:23;51261.50;;;-142.34;22.64
12951;BME280;6540;50.858;7.232;2023-06-10T08:31:49;51398.66;;;-142.34;23.55
12951;BME280;6540;50.858;7.232;2023-06-10T08:34:14;51231.25;;;-142.34;22.84
12951;BME280;6540;50.858;7.232;2023-06-10T08:36:40;51229.22;;;-142.34;22.97
12951;BME280;6540;50.858;7.232;2023-06-10T08:39:05;51277.63;;;-142.34;22.18
12951;BME280;6540;50.858;7.232;2023-06-10T08:41:35;51239.31;;;-142.34;22.72
12951;BME280;6540;50.858;7.232;2023-06-10T08:44:10;51205.03;;;-142.34;22.43
12951;BME280;6540;50.858;7.232;2023-06-10T08:46:39;51261.50;;;-142.34;23.02
12951;BME280;6540;50.858;7.232;2023-06-10T08:49:10;51336.13;;;-142.34;23.08
12951;BME280;6540;50.858;7.232;2023-06-10T08:51:37;51271.59;;;-142.34;22.84
12951;BME280;6540;50.858;7.232;2023-06-10T08:54:11;51332.09;;;-142.34;22.91
12951;BME280;6540;50.858;7.232;2023-06-10T08:56:39;51378.50;;;-142.34;23.84
12951;BME280;6540;50.858;7.232;2023-06-10T08:59:05;51370.41;;;-142.34;23.89
12951;BME280;6540;50.858;7.232;2023-06-10T09:01:31;51412.78;;;-142.34;24.28
12951;BME280;6540;50.858;7.232;2023-06-10T09:03:58;51277.63;;;-142.34;23.31
12951;BME280;6540;50.858;7.232;2023-06-10T09:06:25;51213.09;;;-142.34;22.33
12951;BME280;6540;50.858;7.232;2023-06-10T09:08:50;51257.47;;;-142.34;22.47
12951;BME280;6540;50.858;7.232;2023-06-10T09:11:17;51207.03;;;-142.34;22.26
12951;BME280;6540;50.858;7.232;2023-06-10T09:13:43;51255.44;;;-142.34;22.45
12951;BME280;6540;50.858;7.232;2023-06-10T09:16:08;51245.38;;;-142.34;22.16
12951;BME280;6540;50.858;7.232;2023-06-10T09:18:34;51259.47;;;-142.34;22.60
12951;BME280;6540;50.858;7.232;2023-06-10T09:21:00;51378.50;;;-142.34;23.41
12951;BME280;6540;50.858;7.232;2023-06-10T09:23:25;51374.44;;;-142.34;23.57
12951;BME280;6540;50.858;7.232;2023-06-10T09:25:59;51279.66;;;-142.34;23.12
12951;BME280;6540;50.858;7.232;2023-06-10T09:28:25;51213.09;;;-142.34;21.56
12951;BME280;6540;50.858;7.232;2023-06-10T09:31:03;51180.81;;;-142.34;21.82
12951;BME280;6540;50.858;7.232;2023-06-10T09:33:29;51313.94;;;-142.34;22.65
12951;BME280;6540;50.858;7.232;2023-06-10T09:35:54;51277.63;;;-142.34;22.33
12951;BME280;6540;50.858;7.232;2023-06-10T09:38:22;51261.50;;;-142.34;22.27
12951;BME280;6540;50.858;7.232;2023-06-10T09:40:49;51269.56;;;-142.34;21.81
12951;BME280;6540;50.858;7.232;2023-06-10T09:43:15;51156.63;;;-142.34;22.02
12951;BME280;6540;50.858;7.232;2023-06-10T09:45:40;51311.94;;;-142.34;21.92
12951;BME280;6540;50.858;7.232;2023-06-10T09:48:05;51271.59;;;-142.34;22.17
12951;BME280;6540;50.858;7.232;2023-06-10T09:50:34;51281.66;;;-142.34;22.17
12951;BME280;6540;50.858;7.232;2023-06-10T09:53:02;51326.03;;;-142.34;22.53
12951;BME280;6540;50.858;7.232;2023-06-10T09:55:33;51168.72;;;-142.34;21.54
12951;BME280;6540;50.858;7.232;2023-06-10T09:57:59;51320.00;;;-142.34;22.63
12951;BME280;6540;50.858;7.232;2023-06-10T10:00:24;51233.25;;;-142.34;21.54
12951;BME280;6540;50.858;7.232;2023-06-10T10:02:53;51184.84;;;-142.34;21.38
12951;BME280;6540;50.858;7.232;2023-06-10T10:05:20;51180.81;;;-142.34;21.88
12951;BME280;6540;50.858;7.232;2023-06-10T10:07:47;51196.97;;;-142.34;20.96
12951;BME280;6540;50.858;7.232;2023-06-10T10:10:14;51172.75;;;-142.34;21.04
12951;BME280;6540;50.858;7.232;2023-06-10T10:12:40;51263.53;;;-142.34;21.39
12951;BME280;6540;50.858;7.232;2023-06-10T10:15:08;51217.13;;;-142.34;21.43
12951;BME280;6540;50.858;7.232;2023-06-10T10:17:38;51168.72;;;-142.34;21.10
12951;BME280;6540;50.858;7.232;2023-06-10T10:20:08;51174.78;;;-142.34;21.25
12951;BME280;6540;50.858;7.232;2023-06-10T10:22:38;51229.22;;;-142.34;20.63
12951;BME280;6540;50.858;7.232;2023-06-10T10:25:16;51209.06;;;-142.34;20.92
12951;BME280;6540;50.858;7.232;2023-06-10T10:27:51;51196.97;;;-142.34;20.95
12951;BME280;6540;50.858;7.232;2023-06-10T10:30:17;51227.22;;;-142.34;20.97
12951;BME280;6540;50.858;7.232;2023-06-10T10:32:57;51356.31;;;-142.34;22.25
12951;BME280;6540;50.858;7.232;2023-06-10T10:35:26;51168.72;;;-142.34;20.99
12951;BME280;6540;50.858;7.232;2023-06-10T10:37:52;51217.13;;;-142.34;20.71
12951;BME280;6540;50.858;7.232;2023-06-10T10:40:22;51180.81;;;-142.34;21.21
12951;BME280;6540;50.858;7.232;2023-06-10T10:42:49;51273.59;;;-142.34;21.05
12951;BME280;6540;50.858;7.232;2023-06-10T10:45:15;51243.34;;;-142.34;20.98
12951;BME280;6540;50.858;7.232;2023-06-10T10:47:41;51257.47;;;-142.34;20.80
12951;BME280;6540;50.858;7.232;2023-06-10T10:50:18;51221.16;;;-142.34;20.37
12951;BME280;6540;50.858;7.232;2023-06-10T10:55:19;51275.63;;;-142.34;21.52
12951;BME280;6540;50.858;7.232;2023-06-10T10:57:44;51263.53;;;-142.34;20.87
12951;BME280;6540;50.858;7.232;2023-06-10T11:00:10;51241.34;;;-142.34;20.94
12951;BME280;6540;50.858;7.232;2023-06-10T11:02:41;51188.88;;;-142.34;20.52
12951;BME280;6540;50.858;7.232;2023-06-10T11:05:13;51160.66;;;-142.34;20.30
12951;BME280;6540;50.858;7.232;2023-06-10T11:07:39;51231.25;;;-142.34;20.61
12951;BME280;6540;50.858;7.232;2023-06-10T11:15:12;51265.53;;;-142.34;21.21
12951;BME280;6540;50.858;7.232;2023-06-10T11:17:54;51253.44;;;-142.34;21.02
12951;BME280;6540;50.858;7.232;2023-06-10T11:20:56;51180.81;;;-142.34;21.01
12951;BME280;6540;50.858;7.232;2023-06-10T11:28:36;51295.78;;;-142.34;21.10
12951;BME280;6540;50.858;7.232;2023-06-10T11:31:01;51380.50;;;-142.34;21.29
12951;BME280;6540;50.858;7.232;2023-06-10T11:33:27;51422.88;;;-142.34;22.04
12951;BME280;6540;50.858;7.232;2023-06-10T11:35:53;51370.41;;;-142.34;21.72
12951;BME280;6540;50.858;7.232;2023-06-10T11:38:19;51386.56;;;-142.34;21.75
12951;BME280;6540;50.858;7.232;2023-06-10T11:40:51;51285.72;;;-142.34;21.46
12951;BME280;6540;50.858;7.232;2023-06-10T11:43:20;51317.97;;;-142.34;21.71
12951;BME280;6540;50.858;7.232;2023-06-10T11:45:45;51203.00;;;-142.34;20.84
12951;BME280;6540;50.858;7.232;2023-06-10T11:48:12;51299.81;;;-142.34;20.71
12951;BME280;6540;50.858;7.232;2023-06-10T11:50:37;51348.22;;;-142.34;21.03
12951;BME280;6540;50.858;7.232;2023-06-10T11:53:03;51299.81;;;-142.34;20.86
12951;BME280;6540;50.858;7.232;2023-06-10T11:55:49;51261.50;;;-142.34;20.32
12951;BME280;6540;50.858;7.232;2023-06-10T11:58:17;51243.34;;;-142.34;20.72
12951;BME280;6540;50.858;7.232;2023-06-10T12:00:46;51225.19;;;-142.34;20.48
12951;BME280;6540;50.858;7.232;2023-06-10T12:03:11;51237.28;;;-142.34;20.29
12951;BME280;6540;50.858;7.232;2023-06-10T12:05:37;51307.88;;;-142.34;20.74
12951;BME280;6540;50.858;7.232;2023-06-10T12:08:12;51182.84;;;-142.34;19.94
12951;BME280;6540;50.858;7.232;2023-06-10T12:10:41;51243.34;;;-142.34;20.03
12951;BME280;6540;50.858;7.232;2023-06-10T12:13:08;51251.41;;;-142.34;19.98
12951;BME280;6540;50.858;7.232;2023-06-10T12:15:34;51362.34;;;-142.34;20.90
12951;BME280;6540;50.858;7.232;2023-06-10T12:18:00;51307.88;;;-142.34;20.45
12951;BME280;6540;50.858;7.232;2023-06-10T12:20:28;51293.78;;;-142.34;20.84
12951;BME280;6540;50.858;7.232;2023-06-10T12:22:58;51217.13;;;-142.34;20.13
12951;BME280;6540;50.858;7.232;2023-06-10T12:25:25;51215.09;;;-142.34;20.40
12951;BME280;6540;50.858;7.232;2023-06-10T12:27:53;51209.06;;;-142.34;19.72
12951;BME280;6540;50.858;7.232;2023-06-10T12:30:24;51213.09;;;-142.34;19.30
12951;BME280;6540;50.858;7.232;2023-06-10T12:32:51;51219.16;;;-142.34;20.17
12951;BME280;6540;50.858;7.232;2023-06-10T12:35:19;51106.19;;;-142.34;20.37
12951;BME280;6540;50.858;7.232;2023-06-10T12:40:32;51277.63;;;-142.34;20.52
12951;BME280;6540;50.858;7.232;2023-06-10T12:42:58;51322.00;;;-142.34;20.64
12951;BME280;6540;50.858;7.232;2023-06-10T12:48:43;51342.19;;;-142.34;20.39
12951;BME280;6540;50.858;7.232;2023-06-10T12:50:58;51356.31;;;-142.34;20.85
12951;BME280;6540;50.858;7.232;2023-06-10T12:53:24;51120.31;;;-142.34;19.61
12951;BME280;6540;50.858;7.232;2023-06-10T12:55:51;51186.88;;;-142.34;19.98
12951;BME280;6540;50.858;7.232;2023-06-10T12:58:19;51217.13;;;-142.34;19.46
12951;BME280;6540;50.858;7.232;2023-06-10T13:00:44;51247.38;;;-142.34;19.85
12951;BME280;6540;50.858;7.232;2023-06-10T13:03:10;51265.53;;;-142.34;20.34
12951;BME280;6540;50.858;7.232;2023-06-10T13:05:36;51146.53;;;-142.34;20.77
12951;BME280;6540;50.858;7.232;2023-06-10T13:08:05;51334.13;;;-142.34;21.05